sensor_id;sensor_type;location;lat;lon;timestamp;temperature;humidity
41262;DHT22;29629;52.532;13.352;2023-05-07T00:00:40;9.60;99.90
41262;DHT22;29629;52.532;13.352;2023-05-07T00:03:08;9.60;99.90
41262;DHT22;29629;52.532;13.352;2023-05-07T00:05:36;9.60;99.90
41262;DHT22;29629;52.532;13.352;2023-05-07T00:08:03;9.60;99.90
41262;DHT22;29629;52.532;13.352;2023-05-07T00:10:30;9.60;99.90
41262;DHT22;29629;52.532;13.352;2023-05-07T00:12:57;9.60;99.90
41262;DHT22;29629;52.532;13.352;2023-05-07T00:15:24;9.60;99.90
41262;DHT22;29629;52.532;13.352;2023-05-07T00:17:51;9.60;99.90
41262;DHT22;29629;52.532;13.352;2023-05-07T00:20:18;9.60;99.90
41262;DHT22;29629;52.532;13.352;2023-05-07T00:22:46;9.60;99.90
41262;DHT22;29629;52.532;13.352;2023-05-07T00:25:13;9.60;99.90
41262;DHT22;29629;52.532;13.352;2023-05-07T00:27:40;9.50;99.90
41262;DHT22;29629;52.532;13.352;2023-05-07T00:30:08;9.60;99.90
41262;DHT22;29629;52.532;13.352;2023-05-07T00:32:35;9.60;99.90
41262;DHT22;29629;52.532;13.352;2023-05-07T00:35:02;9.60;99.90
41262;DHT22;29629;52.532;13.352;2023-05-07T00:37:29;9.60;99.90
41262;DHT22;29629;52.532;13.352;2023-05-07T00:39:58;9.50;99.90
41262;DHT22;29629;52.532;13.352;2023-05-07T00:42:25;9.60;99.90
41262;DHT22;29629;52.532;13.352;2023-05-07T00:44:53;9.60;99.90
41262;DHT22;29629;52.532;13.352;2023-05-07T00:47:20;9.60;99.90
41262;DHT22;29629;52.532;13.352;2023-05-07T00:49:47;9.60;99.90
41262;DHT22;29629;52.532;13.352;2023-05-07T00:52:16;9.60;99.90
41262;DHT22;29629;52.532;13.352;2023-05-07T00:54:44;9.60;99.90
41262;DHT22;29629;52.532;13.352;2023-05-07T00:57:13;9.60;99.90
41262;DHT22;29629;52.532;13.352;2023-05-07T00:59:40;9.60;99.90
41262;DHT22;29629;52.532;13.352;2023-05-07T01:02:07;9.60;99.90
41262;DHT22;29629;52.532;13.352;2023-05-07T01:04:34;9.60;99.90
41262;DHT22;29629;52.532;13.352;2023-05-07T01:07:02;9.60;99.90
41262;DHT22;29629;52.532;13.352;2023-05-07T01:09:30;9.60;99.90
41262;DHT22;29629;52.532;13.352;2023-05-07T01:11:57;9.60;99.90
41262;DHT22;29629;52.532;13.352;2023-05-07T01:14:27;9.60;99.90
41262;DHT22;29629;52.532;13.352;2023-05-07T01:16:55;9.50;99.90
41262;DHT22;29629;52.532;13.352;2023-05-07T01:19:22;9.60;99.90
41262;DHT22;29629;52.532;13.352;2023-05-07T01:21:51;9.50;99.90
41262;DHT22;29629;52.532;13.352;2023-05-07T01:24:24;9.50;99.90
41262;DHT22;29629;52.532;13.352;2023-05-07T01:26:51;9.60;99.90
41262;DHT22;29629;52.532;13.352;2023-05-07T01:29:18;9.60;99.90
41262;DHT22;29629;52.532;13.352;2023-05-07T01:31:46;9.60;99.90
41262;DHT22;29629;52.532;13.352;2023-05-07T01:34:14;9.60;99.90
41262;DHT22;29629;52.532;13.352;2023-05-07T01:36:43;9.60;99.90
41262;DHT22;29629;52.532;13.352;2023-05-07T01:39:11;9.60;99.90
41262;DHT22;29629;52.532;13.352;2023-05-07T01:41:40;9.60;99.90
41262;DHT22;29629;52.532;13.352;2023-05-07T01:44:07;9.60;99.90
41262;DHT22;29629;52.532;13.352;2023-05-07T01:46:35;9.60;99.90
41262;DHT22;29629;52.532;13.352;2023-05-07T01:49:02;9.60;99.90
41262;DHT22;29629;52.532;13.352;2023-05-07T01:51:29;9.60;99.90
41262;DHT22;29629;52.532;13.352;2023-05-07T01:53:57;9.60;99.90
41262;DHT22;29629;52.532;13.352;2023-05-07T01:56:24;9.60;99.90
41262;DHT22;29629;52.532;13.352;2023-05-07T01:58:53;9.50;99.90
41262;DHT22;29629;52.532;13.352;2023-05-07T02:01:20;9.50;99.90
41262;DHT22;29629;52.532;13.352;2023-05-07T02:03:47;9.50;99.90
41262;DHT22;29629;52.532;13.352;2023-05-07T02:06:13;9.50;99.90
41262;DHT22;29629;52.532;13.352;2023-05-07T02:08:40;9.50;99.90
41262;DHT22;29629;52.532;13.352;2023-05-07T02:11:07;9.60;99.90
41262;DHT22;29629;52.532;13.352;2023-05-07T02:13:34;9.60;99.90
41262;DHT22;29629;52.532;13.352;2023-05-07T02:16:03;9.40;99.90
41262;DHT22;29629;52.532;13.352;2023-05-07T02:18:31;9.50;99.90
41262;DHT22;29629;52.532;13.352;2023-05-07T02:20:58;9.50;99.90
41262;DHT22;29629;52.532;13.352;2023-05-07T02:23:25;9.50;99.90
41262;DHT22;29629;52.532;13.352;2023-05-07T02:25:52;9.50;99.90
41262;DHT22;29629;52.532;13.352;2023-05-07T02:28:19;9.50;99.90
41262;DHT22;29629;52.532;13.352;2023-05-07T02:30:46;9.50;99.90
41262;DHT22;29629;52.532;13.352;2023-05-07T02:33:14;9.50;99.90
41262;DHT22;29629;52.532;13.352;2023-05-07T02:35:41;9.50;99.90
41262;DHT22;29629;52.532;13.352;2023-05-07T02:38:08;9.40;99.90
41262;DHT22;29629;52.532;13.352;2023-05-07T02:40:36;9.50;99.90
41262;DHT22;29629;52.532;13.352;2023-05-07T02:43:05;9.50;99.90
41262;DHT22;29629;52.532;13.352;2023-05-07T02:45:32;9.50;99.90
41262;DHT22;29629;52.532;13.352;2023-05-07T02:47:59;9.50;99.90
41262;DHT22;29629;52.532;13.352;2023-05-07T02:50:27;9.50;99.90
41262;DHT22;29629;52.532;13.352;2023-05-07T02:52:54;9.50;99.90
41262;DHT22;29629;52.532;13.352;2023-05-07T02:55:21;9.50;99.90
41262;DHT22;29629;52.532;13.352;2023-05-07T02:57:48;9.50;99.90
41262;DHT22;29629;52.532;13.352;2023-05-07T03:00:17;9.50;99.90
41262;DHT22;29629;52.532;13.352;2023-05-07T03:02:44;9.50;99.90
41262;DHT22;29629;52.532;13.352;2023-05-07T03:05:11;9.50;99.90
41262;DHT22;29629;52.532;13.352;2023-05-07T03:07:39;9.40;99.90
41262;DHT22;29629;52.532;13.352;2023-05-07T03:10:07;9.50;99.90
41262;DHT22;29629;52.532;13.352;2023-05-07T03:12:34;9.60;99.90
41262;DHT22;29629;52.532;13.352;2023-05-07T03:15:01;9.50;99.90
41262;DHT22;29629;52.532;13.352;2023-05-07T03:17:28;9.50;99.90
41262;DHT22;29629;52.532;13.352;2023-05-07T03:19:55;9.50;99.90
41262;DHT22;29629;52.532;13.352;2023-05-07T03:22:22;9.50;99.90
41262;DHT22;29629;52.532;13.352;2023-05-07T03:24:50;9.50;99.90
41262;DHT22;29629;52.532;13.352;2023-05-07T03:27:17;9.50;99.90
41262;DHT22;29629;52.532;13.352;2023-05-07T03:29:44;9.50;99.90
41262;DHT22;29629;52.532;13.352;2023-05-07T03:32:11;9.50;99.90
41262;DHT22;29629;52.532;13.352;2023-05-07T03:34:38;9.50;99.90
41262;DHT22;29629;52.532;13.352;2023-05-07T03:37:04;9.50;99.90
41262;DHT22;29629;52.532;13.352;2023-05-07T03:39:31;9.50;99.90
41262;DHT22;29629;52.532;13.352;2023-05-07T03:42:00;9.50;99.90
41262;DHT22;29629;52.532;13.352;2023-05-07T03:44:27;9.50;99.90
41262;DHT22;29629;52.532;13.352;2023-05-07T03:46:54;9.50;99.90
41262;DHT22;29629;52.532;13.352;2023-05-07T03:49:21;9.50;99.90
41262;DHT22;29629;52.532;13.352;2023-05-07T03:51:48;9.50;99.90
41262;DHT22;29629;52.532;13.352;2023-05-07T03:54:15;9.50;99.90
41262;DHT22;29629;52.532;13.352;2023-05-07T03:56:41;9.50;99.90
41262;DHT22;29629;52.532;13.352;2023-05-07T03:59:10;9.50;99.90
41262;DHT22;29629;52.532;13.352;2023-05-07T04:01:37;9.50;99.90
41262;DHT22;29629;52.532;13.352;2023-05-07T04:04:04;9.50;99.90
41262;DHT22;29629;52.532;13.352;2023-05-07T04:06:31;9.50;99.90
41262;DHT22;29629;52.532;13.352;2023-05-07T04:08:58;9.40;99.90
41262;DHT22;29629;52.532;13.352;2023-05-07T04:11:25;9.40;99.90
41262;DHT22;29629;52.532;13.352;2023-05-07T04:13:52;9.50;99.90
41262;DHT22;29629;52.532;13.352;2023-05-07T04:16:20;9.40;99.90
41262;DHT22;29629;52.532;13.352;2023-05-07T04:18:47;9.40;99.90
41262;DHT22;29629;52.532;13.352;2023-05-07T04:21:14;9.40;99.90
41262;DHT22;29629;52.532;13.352;2023-05-07T04:23:42;9.40;99.90
41262;DHT22;29629;52.532;13.352;2023-05-07T04:26:09;9.40;99.90
41262;DHT22;29629;52.532;13.352;2023-05-07T04:28:36;9.40;99.90
41262;DHT22;29629;52.532;13.352;2023-05-07T04:31:03;9.40;99.90
41262;DHT22;29629;52.532;13.352;2023-05-07T04:33:31;9.40;99.90
41262;DHT22;29629;52.532;13.352;2023-05-07T04:36:00;9.40;99.90
41262;DHT22;29629;52.532;13.352;2023-05-07T04:38:29;9.40;99.90
41262;DHT22;29629;52.532;13.352;2023-05-07T04:40:57;9.50;99.90
41262;DHT22;29629;52.532;13.352;2023-05-07T04:43:24;9.50;99.90
41262;DHT22;29629;52.532;13.352;2023-05-07T04:45:51;9.50;99.90
41262;DHT22;29629;52.532;13.352;2023-05-07T04:48:18;9.40;99.90
41262;DHT22;29629;52.532;13.352;2023-05-07T04:50:49;9.50;99.90
41262;DHT22;29629;52.532;13.352;2023-05-07T04:53:16;9.50;99.90
41262;DHT22;29629;52.532;13.352;2023-05-07T04:55:43;9.50;99.90
41262;DHT22;29629;52.532;13.352;2023-05-07T04:58:10;9.60;99.90
41262;DHT22;29629;52.532;13.352;2023-05-07T05:00:38;9.60;99.90
41262;DHT22;29629;52.532;13.352;2023-05-07T05:03:06;9.60;99.90
41262;DHT22;29629;52.532;13.352;2023-05-07T05:05:33;9.70;99.90
41262;DHT22;29629;52.532;13.352;2023-05-07T05:08:01;9.70;99.90
41262;DHT22;29629;52.532;13.352;2023-05-07T05:10:28;9.70;99.90
41262;DHT22;29629;52.532;13.352;2023-05-07T05:12:55;9.70;99.90
41262;DHT22;29629;52.532;13.352;2023-05-07T05:15:22;9.70;99.90
41262;DHT22;29629;52.532;13.352;2023-05-07T05:17:49;9.70;99.90
41262;DHT22;29629;52.532;13.352;2023-05-07T05:20:16;9.80;99.90
41262;DHT22;29629;52.532;13.352;2023-05-07T05:22:43;9.80;99.90
41262;DHT22;29629;52.532;13.352;2023-05-07T05:25:11;9.90;99.90
41262;DHT22;29629;52.532;13.352;2023-05-07T05:27:38;9.90;99.90
41262;DHT22;29629;52.532;13.352;2023-05-07T05:30:06;9.90;99.90
41262;DHT22;29629;52.532;13.352;2023-05-07T05:32:33;9.90;99.90
41262;DHT22;29629;52.532;13.352;2023-05-07T05:35:00;9.90;99.90
41262;DHT22;29629;52.532;13.352;2023-05-07T05:37:27;9.90;99.90
41262;DHT22;29629;52.532;13.352;2023-05-07T05:39:55;9.80;99.90
41262;DHT22;29629;52.532;13.352;2023-05-07T05:42:24;9.80;99.90
41262;DHT22;29629;52.532;13.352;2023-05-07T05:44:50;9.80;99.90
41262;DHT22;29629;52.532;13.352;2023-05-07T05:47:17;9.80;99.90
41262;DHT22;29629;52.532;13.352;2023-05-07T05:49:44;9.80;99.90
41262;DHT22;29629;52.532;13.352;2023-05-07T05:52:12;9.80;99.90
41262;DHT22;29629;52.532;13.352;2023-05-07T05:54:39;9.70;99.90
41262;DHT22;29629;52.532;13.352;2023-05-07T05:57:06;9.70;99.90
41262;DHT22;29629;52.532;13.352;2023-05-07T05:59:35;9.80;99.90
41262;DHT22;29629;52.532;13.352;2023-05-07T06:02:02;9.90;99.90
41262;DHT22;29629;52.532;13.352;2023-05-07T06:04:29;9.90;99.90
41262;DHT22;29629;52.532;13.352;2023-05-07T06:06:56;10.00;99.90
41262;DHT22;29629;52.532;13.352;2023-05-07T06:09:23;10.10;99.90
41262;DHT22;29629;52.532;13.352;2023-05-07T06:11:50;10.10;99.90
41262;DHT22;29629;52.532;13.352;2023-05-07T06:14:17;10.20;99.90
41262;DHT22;29629;52.532;13.352;2023-05-07T06:16:45;10.30;99.90
41262;DHT22;29629;52.532;13.352;2023-05-07T06:19:12;10.50;99.90
41262;DHT22;29629;52.532;13.352;2023-05-07T06:21:39;10.60;99.90
41262;DHT22;29629;52.532;13.352;2023-05-07T06:24:07;10.60;99.90
41262;DHT22;29629;52.532;13.352;2023-05-07T06:26:34;10.70;99.90
41262;DHT22;29629;52.532;13.352;2023-05-07T06:29:01;10.80;99.90
41262;DHT22;29629;52.532;13.352;2023-05-07T06:31:30;10.70;99.90
41262;DHT22;29629;52.532;13.352;2023-05-07T06:33:59;10.60;99.90
41262;DHT22;29629;52.532;13.352;2023-05-07T06:36:27;10.70;99.90
41262;DHT22;29629;52.532;13.352;2023-05-07T06:38:55;10.70;99.90
41262;DHT22;29629;52.532;13.352;2023-05-07T06:41:22;10.70;99.90
41262;DHT22;29629;52.532;13.352;2023-05-07T06:43:49;10.70;99.90
41262;DHT22;29629;52.532;13.352;2023-05-07T06:46:16;10.80;99.90
41262;DHT22;29629;52.532;13.352;2023-05-07T06:48:43;10.90;99.90
41262;DHT22;29629;52.532;13.352;2023-05-07T06:51:11;11.00;99.90
41262;DHT22;29629;52.532;13.352;2023-05-07T06:53:38;11.10;99.90
41262;DHT22;29629;52.532;13.352;2023-05-07T06:56:06;11.00;99.90
41262;DHT22;29629;52.532;13.352;2023-05-07T06:58:33;11.10;99.90
41262;DHT22;29629;52.532;13.352;2023-05-07T07:01:00;11.20;99.90
41262;DHT22;29629;52.532;13.352;2023-05-07T07:03:27;11.20;99.90
41262;DHT22;29629;52.532;13.352;2023-05-07T07:05:54;11.50;99.90
41262;DHT22;29629;52.532;13.352;2023-05-07T07:08:22;11.50;99.90
41262;DHT22;29629;52.532;13.352;2023-05-07T07:10:49;11.50;99.90
41262;DHT22;29629;52.532;13.352;2023-05-07T07:13:16;11.60;99.90
41262;DHT22;29629;52.532;13.352;2023-05-07T07:15:43;11.50;99.90
41262;DHT22;29629;52.532;13.352;2023-05-07T07:18:10;11.80;99.90
41262;DHT22;29629;52.532;13.352;2023-05-07T07:20:37;12.10;99.90
41262;DHT22;29629;52.532;13.352;2023-05-07T07:23:04;12.10;99.90
41262;DHT22;29629;52.532;13.352;2023-05-07T07:25:33;12.20;99.90
41262;DHT22;29629;52.532;13.352;2023-05-07T07:28:00;12.20;99.90
41262;DHT22;29629;52.532;13.352;2023-05-07T07:30:26;12.30;99.90
41262;DHT22;29629;52.532;13.352;2023-05-07T07:32:53;12.50;99.90
41262;DHT22;29629;52.532;13.352;2023-05-07T07:35:25;12.90;99.90
41262;DHT22;29629;52.532;13.352;2023-05-07T07:37:52;13.20;99.90
41262;DHT22;29629;52.532;13.352;2023-05-07T07:40:19;13.20;99.90
41262;DHT22;29629;52.532;13.352;2023-05-07T07:42:48;12.90;99.90
41262;DHT22;29629;52.532;13.352;2023-05-07T07:45:15;13.20;99.90
41262;DHT22;29629;52.532;13.352;2023-05-07T07:47:42;13.10;99.90
41262;DHT22;29629;52.532;13.352;2023-05-07T07:50:09;13.10;99.90
41262;DHT22;29629;52.532;13.352;2023-05-07T07:52:36;13.20;99.90
41262;DHT22;29629;52.532;13.352;2023-05-07T07:55:04;13.50;99.90
41262;DHT22;29629;52.532;13.352;2023-05-07T07:57:31;13.70;99.90
41262;DHT22;29629;52.532;13.352;2023-05-07T07:59:59;13.90;99.90
41262;DHT22;29629;52.532;13.352;2023-05-07T08:02:27;14.00;99.90
41262;DHT22;29629;52.532;13.352;2023-05-07T08:04:54;14.20;99.90
41262;DHT22;29629;52.532;13.352;2023-05-07T08:07:21;14.20;99.90
41262;DHT22;29629;52.532;13.352;2023-05-07T08:09:48;14.20;99.90
41262;DHT22;29629;52.532;13.352;2023-05-07T08:12:15;14.00;99.90
41262;DHT22;29629;52.532;13.352;2023-05-07T08:14:42;13.90;99.90
41262;DHT22;29629;52.532;13.352;2023-05-07T08:17:10;14.10;99.90
41262;DHT22;29629;52.532;13.352;2023-05-07T08:19:37;14.40;99.90
41262;DHT22;29629;52.532;13.352;2023-05-07T08:22:04;15.10;99.90
41262;DHT22;29629;52.532;13.352;2023-05-07T08:24:32;15.00;99.90
41262;DHT22;29629;52.532;13.352;2023-05-07T08:26:59;15.20;99.90
41262;DHT22;29629;52.532;13.352;2023-05-07T08:29:26;15.20;99.90
41262;DHT22;29629;52.532;13.352;2023-05-07T08:31:52;15.40;99.90
41262;DHT22;29629;52.532;13.352;2023-05-07T08:34:21;15.50;99.90
41262;DHT22;29629;52.532;13.352;2023-05-07T08:36:48;15.00;99.90
41262;DHT22;29629;52.532;13.352;2023-05-07T08:39:15;15.00;99.90
41262;DHT22;29629;52.532;13.352;2023-05-07T08:41:44;15.20;99.90
41262;DHT22;29629;52.532;13.352;2023-05-07T08:44:12;15.00;99.90
41262;DHT22;29629;52.532;13.352;2023-05-07T08:46:41;15.40;99.90
41262;DHT22;29629;52.532;13.352;2023-05-07T08:49:09;15.50;99.90
41262;DHT22;29629;52.532;13.352;2023-05-07T08:51:37;15.60;99.90
41262;DHT22;29629;52.532;13.352;2023-05-07T08:54:05;16.20;99.90
41262;DHT22;29629;52.532;13.352;2023-05-07T08:56:33;16.70;99.90
41262;DHT22;29629;52.532;13.352;2023-05-07T08:59:00;17.00;99.90
41262;DHT22;29629;52.532;13.352;2023-05-07T09:01:27;17.50;99.90
41262;DHT22;29629;52.532;13.352;2023-05-07T09:03:54;17.10;99.90
41262;DHT22;29629;52.532;13.352;2023-05-07T09:06:21;17.30;99.90
41262;DHT22;29629;52.532;13.352;2023-05-07T09:08:54;17.60;99.90
41262;DHT22;29629;52.532;13.352;2023-05-07T09:11:21;17.60;99.90
41262;DHT22;29629;52.532;13.352;2023-05-07T09:13:49;17.50;99.90
41262;DHT22;29629;52.532;13.352;2023-05-07T09:16:20;17.80;99.90
41262;DHT22;29629;52.532;13.352;2023-05-07T09:18:51;18.40;99.90
41262;DHT22;29629;52.532;13.352;2023-05-07T09:21:19;19.00;99.90
41262;DHT22;29629;52.532;13.352;2023-05-07T09:23:48;19.40;99.90
41262;DHT22;29629;52.532;13.352;2023-05-07T09:26:16;19.80;99.90
41262;DHT22;29629;52.532;13.352;2023-05-07T09:28:43;19.10;99.90
41262;DHT22;29629;52.532;13.352;2023-05-07T09:31:12;18.40;99.90
41262;DHT22;29629;52.532;13.352;2023-05-07T09:33:39;19.10;99.90
41262;DHT22;29629;52.532;13.352;2023-05-07T09:36:07;20.70;99.90
41262;DHT22;29629;52.532;13.352;2023-05-07T09:38:36;21.00;99.90
41262;DHT22;29629;52.532;13.352;2023-05-07T09:41:04;19.30;99.90
41262;DHT22;29629;52.532;13.352;2023-05-07T09:43:37;22.30;99.90
41262;DHT22;29629;52.532;13.352;2023-05-07T09:46:07;23.70;99.90
41262;DHT22;29629;52.532;13.352;2023-05-07T09:48:38;23.00;99.90
41262;DHT22;29629;52.532;13.352;2023-05-07T09:51:12;22.60;99.90
41262;DHT22;29629;52.532;13.352;2023-05-07T09:53:43;22.20;99.90
41262;DHT22;29629;52.532;13.352;2023-05-07T09:56:13;21.30;99.90
41262;DHT22;29629;52.532;13.352;2023-05-07T09:58:43;21.10;99.90
41262;DHT22;29629;52.532;13.352;2023-05-07T10:01:12;22.70;99.90
41262;DHT22;29629;52.532;13.352;2023-05-07T10:03:40;22.20;99.90
41262;DHT22;29629;52.532;13.352;2023-05-07T10:06:08;20.80;99.90
41262;DHT22;29629;52.532;13.352;2023-05-07T10:08:36;21.50;99.90
41262;DHT22;29629;52.532;13.352;2023-05-07T10:11:04;21.60;99.90
41262;DHT22;29629;52.532;13.352;2023-05-07T10:13:32;22.20;99.90
41262;DHT22;29629;52.532;13.352;2023-05-07T10:16:03;20.10;99.90
41262;DHT22;29629;52.532;13.352;2023-05-07T10:18:31;20.10;99.90
41262;DHT22;29629;52.532;13.352;2023-05-07T10:21:04;19.10;99.90
41262;DHT22;29629;52.532;13.352;2023-05-07T10:23:33;18.70;99.90
41262;DHT22;29629;52.532;13.352;2023-05-07T10:26:03;17.80;99.90
41262;DHT22;29629;52.532;13.352;2023-05-07T10:28:33;18.00;99.90
41262;DHT22;29629;52.532;13.352;2023-05-07T10:31:11;19.80;99.90
41262;DHT22;29629;52.532;13.352;2023-05-07T10:33:40;18.70;99.90
41262;DHT22;29629;52.532;13.352;2023-05-07T10:36:08;17.70;99.90
41262;DHT22;29629;52.532;13.352;2023-05-07T10:38:35;17.40;99.90
41262;DHT22;29629;52.532;13.352;2023-05-07T10:41:02;19.40;99.90
41262;DHT22;29629;52.532;13.352;2023-05-07T10:43:40;19.50;99.90
41262;DHT22;29629;52.532;13.352;2023-05-07T10:46:15;18.80;99.90
41262;DHT22;29629;52.532;13.352;2023-05-07T10:49:07;18.20;99.90
41262;DHT22;29629;52.532;13.352;2023-05-07T10:51:34;18.50;99.90
41262;DHT22;29629;52.532;13.352;2023-05-07T10:54:23;18.90;99.90
41262;DHT22;29629;52.532;13.352;2023-05-07T10:56:50;18.10;99.90
41262;DHT22;29629;52.532;13.352;2023-05-07T10:59:31;17.60;99.90
41262;DHT22;29629;52.532;13.352;2023-05-07T11:02:01;18.10;99.90
41262;DHT22;29629;52.532;13.352;2023-05-07T11:04:30;19.10;99.90
41262;DHT22;29629;52.532;13.352;2023-05-07T11:07:26;19.60;99.90
41262;DHT22;29629;52.532;13.352;2023-05-07T11:10:04;18.80;99.90
41262;DHT22;29629;52.532;13.352;2023-05-07T11:12:54;18.00;99.90
41262;DHT22;29629;52.532;13.352;2023-05-07T11:15:38;18.30;99.90
41262;DHT22;29629;52.532;13.352;2023-05-07T11:18:08;20.00;99.90
41262;DHT22;29629;52.532;13.352;2023-05-07T11:20:50;19.90;99.90
41262;DHT22;29629;52.532;13.352;2023-05-07T11:26:22;21.20;99.90
41262;DHT22;29629;52.532;13.352;2023-05-07T11:28:49;20.90;99.90
41262;DHT22;29629;52.532;13.352;2023-05-07T11:31:21;20.40;99.90
41262;DHT22;29629;52.532;13.352;2023-05-07T11:33:49;19.40;99.90
41262;DHT22;29629;52.532;13.352;2023-05-07T11:36:18;19.40;99.90
41262;DHT22;29629;52.532;13.352;2023-05-07T11:38:46;20.10;99.90
41262;DHT22;29629;52.532;13.352;2023-05-07T11:41:13;22.30;99.90
41262;DHT22;29629;52.532;13.352;2023-05-07T11:43:54;22.20;99.90
41262;DHT22;29629;52.532;13.352;2023-05-07T11:46:21;21.90;99.90
41262;DHT22;29629;52.532;13.352;2023-05-07T11:48:50;22.10;99.90
41262;DHT22;29629;52.532;13.352;2023-05-07T11:51:21;22.70;99.90
41262;DHT22;29629;52.532;13.352;2023-05-07T11:53:48;22.80;99.90
41262;DHT22;29629;52.532;13.352;2023-05-07T11:56:17;21.90;99.90
41262;DHT22;29629;52.532;13.352;2023-05-07T11:58:46;21.10;99.90
41262;DHT22;29629;52.532;13.352;2023-05-07T12:01:13;21.10;99.90
41262;DHT22;29629;52.532;13.352;2023-05-07T12:03:42;20.40;99.90
41262;DHT22;29629;52.532;13.352;2023-05-07T12:06:11;19.90;99.90
41262;DHT22;29629;52.532;13.352;2023-05-07T12:08:38;19.90;99.90
41262;DHT22;29629;52.532;13.352;2023-05-07T12:11:08;18.90;99.90
41262;DHT22;29629;52.532;13.352;2023-05-07T12:13:37;19.70;99.90
41262;DHT22;29629;52.532;13.352;2023-05-07T12:16:05;20.50;99.90
41262;DHT22;29629;52.532;13.352;2023-05-07T12:18:34;20.60;99.90
41262;DHT22;29629;52.532;13.352;2023-05-07T12:21:02;20.00;99.90
41262;DHT22;29629;52.532;13.352;2023-05-07T12:23:32;20.60;99.90
41262;DHT22;29629;52.532;13.352;2023-05-07T12:25:59;21.70;99.90
41262;DHT22;29629;52.532;13.352;2023-05-07T12:28:26;22.80;99.90
41262;DHT22;29629;52.532;13.352;2023-05-07T12:30:54;23.60;99.90
41262;DHT22;29629;52.532;13.352;2023-05-07T12:33:24;23.10;99.90
41262;DHT22;29629;52.532;13.352;2023-05-07T12:35:54;22.80;99.90
41262;DHT22;29629;52.532;13.352;2023-05-07T12:38:21;23.10;99.90
41262;DHT22;29629;52.532;13.352;2023-05-07T12:40:53;22.20;99.90
41262;DHT22;29629;52.532;13.352;2023-05-07T12:43:21;20.70;99.90
41262;DHT22;29629;52.532;13.352;2023-05-07T12:45:50;21.40;99.90
41262;DHT22;29629;52.532;13.352;2023-05-07T12:48:17;22.00;99.90
41262;DHT22;29629;52.532;13.352;2023-05-07T12:50:45;21.30;99.90
41262;DHT22;29629;52.532;13.352;2023-05-07T12:53:15;21.50;99.90
41262;DHT22;29629;52.532;13.352;2023-05-07T12:55:42;21.50;99.90
41262;DHT22;29629;52.532;13.352;2023-05-07T12:58:16;21.80;99.90
41262;DHT22;29629;52.532;13.352;2023-05-07T13:00:43;22.00;99.90
41262;DHT22;29629;52.532;13.352;2023-05-07T13:03:11;21.60;99.90
41262;DHT22;29629;52.532;13.352;2023-05-07T13:05:38;20.70;99.90
41262;DHT22;29629;52.532;13.352;2023-05-07T13:08:05;21.10;99.90
41262;DHT22;29629;52.532;13.352;2023-05-07T13:10:35;21.30;99.90
41262;DHT22;29629;52.532;13.352;2023-05-07T13:13:02;21.30;99.90
41262;DHT22;29629;52.532;13.352;2023-05-07T13:15:30;20.70;99.90
41262;DHT22;29629;52.532;13.352;2023-05-07T13:17:57;20.20;99.90
41262;DHT22;29629;52.532;13.352;2023-05-07T13:20:24;19.80;99.90
41262;DHT22;29629;52.532;13.352;2023-05-07T13:22:51;19.30;99.90
41262;DHT22;29629;52.532;13.352;2023-05-07T13:25:18;19.00;99.90
41262;DHT22;29629;52.532;13.352;2023-05-07T13:27:45;18.80;99.90
41262;DHT22;29629;52.532;13.352;2023-05-07T13:30:12;18.80;99.90
41262;DHT22;29629;52.532;13.352;2023-05-07T13:32:41;18.20;99.90
41262;DHT22;29629;52.532;13.352;2023-05-07T13:35:08;18.10;99.90
41262;DHT22;29629;52.532;13.352;2023-05-07T13:37:34;18.10;99.90
41262;DHT22;29629;52.532;13.352;2023-05-07T13:40:02;18.30;99.90
41262;DHT22;29629;52.532;13.352;2023-05-07T13:42:29;18.20;99.90
41262;DHT22;29629;52.532;13.352;2023-05-07T13:44:56;18.10;99.90
41262;DHT22;29629;52.532;13.352;2023-05-07T13:47:23;18.00;99.90
41262;DHT22;29629;52.532;13.352;2023-05-07T13:49:52;18.00;99.90
41262;DHT22;29629;52.532;13.352;2023-05-07T13:52:19;18.10;99.90
41262;DHT22;29629;52.532;13.352;2023-05-07T13:54:45;17.90;99.90
41262;DHT22;29629;52.532;13.352;2023-05-07T13:57:12;18.10;99.90
41262;DHT22;29629;52.532;13.352;2023-05-07T13:59:40;18.00;99.90
41262;DHT22;29629;52.532;13.352;2023-05-07T14:02:07;17.80;99.90
41262;DHT22;29629;52.532;13.352;2023-05-07T14:04:34;17.70;99.90
41262;DHT22;29629;52.532;13.352;2023-05-07T14:07:03;17.70;99.90
41262;DHT22;29629;52.532;13.352;2023-05-07T14:09:30;17.90;99.90
41262;DHT22;29629;52.532;13.352;2023-05-07T14:11:58;17.70;99.90
41262;DHT22;29629;52.532;13.352;2023-05-07T14:14:25;17.60;99.90
41262;DHT22;29629;52.532;13.352;2023-05-07T14:16:52;17.40;99.90
41262;DHT22;29629;52.532;13.352;2023-05-07T14:19:19;17.50;99.90
41262;DHT22;29629;52.532;13.352;2023-05-07T14:21:48;17.40;99.90
41262;DHT22;29629;52.532;13.352;2023-05-07T14:24:16;17.20;99.90
41262;DHT22;29629;52.532;13.352;2023-05-07T14:26:43;16.80;99.90
41262;DHT22;29629;52.532;13.352;2023-05-07T14:29:10;16.80;99.90
41262;DHT22;29629;52.532;13.352;2023-05-07T14:31:37;16.90;99.90
41262;DHT22;29629;52.532;13.352;2023-05-07T14:34:05;16.80;99.90
41262;DHT22;29629;52.532;13.352;2023-05-07T14:36:32;17.10;99.90
41262;DHT22;29629;52.532;13.352;2023-05-07T14:38:59;17.00;99.90
41262;DHT22;29629;52.532;13.352;2023-05-07T14:41:27;16.70;99.90
41262;DHT22;29629;52.532;13.352;2023-05-07T14:43:54;16.70;99.90
41262;DHT22;29629;52.532;13.352;2023-05-07T14:46:21;16.50;99.90
41262;DHT22;29629;52.532;13.352;2023-05-07T14:48:49;16.40;99.90
41262;DHT22;29629;52.532;13.352;2023-05-07T14:51:16;16.60;99.90
41262;DHT22;29629;52.532;13.352;2023-05-07T14:53:43;16.60;99.90
41262;DHT22;29629;52.532;13.352;2023-05-07T14:56:10;16.80;99.90
41262;DHT22;29629;52.532;13.352;2023-05-07T14:58:38;16.90;99.90
41262;DHT22;29629;52.532;13.352;2023-05-07T15:01:05;16.50;99.90
41262;DHT22;29629;52.532;13.352;2023-05-07T15:03:32;16.40;99.90
41262;DHT22;29629;52.532;13.352;2023-05-07T15:05:59;16.30;99.90
41262;DHT22;29629;52.532;13.352;2023-05-07T15:08:26;16.40;99.90
41262;DHT22;29629;52.532;13.352;2023-05-07T15:10:53;16.40;99.90
41262;DHT22;29629;52.532;13.352;2023-05-07T15:13:20;16.50;99.90
41262;DHT22;29629;52.532;13.352;2023-05-07T15:15:49;16.70;99.90
41262;DHT22;29629;52.532;13.352;2023-05-07T15:18:16;16.70;99.90
41262;DHT22;29629;52.532;13.352;2023-05-07T15:20:43;16.80;99.90
41262;DHT22;29629;52.532;13.352;2023-05-07T15:23:10;16.90;99.90
41262;DHT22;29629;52.532;13.352;2023-05-07T15:25:37;16.80;99.90
41262;DHT22;29629;52.532;13.352;2023-05-07T15:28:04;17.00;99.90
41262;DHT22;29629;52.532;13.352;2023-05-07T15:30:31;16.80;99.90